Time;durP1;ratioP1;P1;durP2;ratioP2;P2;SDS_P1;SDS_P2;PMS_P1;PMS_P2;Temp;Humidity;BMP_temperature;BMP_pressure;BME280_temperature;BME280_humidity;BME280_pressure;Samples;Min_cycle;Max_cycle;Signal;HPM_P1;HPM_P2
2022/09/11 00:01:21;;;;;;;2.17;0.68;;;;;;;17.39;81.92;99584.03;4287081;33;34440;-85
2022/09/11 00:04:08;;;;;;;1.55;0.70;;;;;;;16.64;85.55;99591.13;4274481;33;35627;-85
2022/09/11 00:06:54;;;;;;;1.30;0.60;;;;;;;16.71;85.96;99591.34;4292277;33;34116;-83
2022/09/11 00:09:41;;;;;;;1.80;0.50;;;;;;;15.35;93.78;99592.75;4274011;33;34185;-84
2022/09/11 00:12:27;;;;;;;0.82;0.57;;;;;;;15.66;90.70;99589.41;4275478;33;99324;-84
2022/09/11 00:15:13;;;;;;;2.05;0.60;;;;;;;15.94;89.79;99580.44;4289945;33;33800;-85
2022/09/11 00:17:59;;;;;;;2.30;0.57;;;;;;;16.36;87.81;99575.38;4288559;33;35879;-85
2022/09/11 00:20:50;;;;;;;2.30;0.60;;;;;;;16.48;87.07;99574.50;4274660;33;34752;-84
2022/09/11 00:23:37;;;;;;;;;;;;;;;16.50;86.26;99566.66;4279444;33;35043;-85
2022/09/11 00:26:24;;;;;;;0.95;0.37;;;;;;;16.63;84.74;99565.44;4274259;33;35286;-84
2022/09/11 00:29:10;;;;;;;1.10;0.50;;;;;;;16.83;83.65;99571.12;4273061;33;35153;-85
2022/09/11 00:31:57;;;;;;;0.95;0.50;;;;;;;16.74;83.63;99562.19;4294204;33;33644;-86
2022/09/11 00:34:45;;;;;;;0.62;0.50;;;;;;;17.25;80.42;99565.91;4283384;33;34605;-85
2022/09/11 00:37:31;;;;;;;1.20;0.77;;;;;;;16.80;82.41;99564.34;4277407;33;34686;-85
2022/09/11 00:40:18;;;;;;;1.15;0.60;;;;;;;16.79;82.63;99556.38;4288191;33;33695;-85
2022/09/11 00:43:08;;;;;;;1.17;0.60;;;;;;;16.55;83.87;99566.41;4275209;33;34348;-85
2022/09/11 00:46:01;;;;;;;1.23;0.47;;;;;;;16.80;83.12;99567.13;4284735;33;33633;-84
2022/09/11 00:48:48;;;;;;;1.75;0.65;;;;;;;17.22;79.99;99571.38;4283420;33;35015;-85
2022/09/11 00:51:36;;;;;;;2.87;0.40;;;;;;;17.00;80.34;99568.03;4273313;33;34619;-85
2022/09/11 00:54:29;;;;;;;1.58;0.50;;;;;;;16.52;83.37;99569.06;4284963;33;34070;-85
2022/09/11 00:57:17;;;;;;;1.12;0.40;;;;;;;16.66;83.13;99563.12;4272568;33;34192;-85
2022/09/11 01:00:04;;;;;;;4.03;0.50;;;;;;;16.64;82.15;99569.00;4278663;33;34648;-85
2022/09/11 01:02:52;;;;;;;2.92;0.50;;;;;;;16.80;81.73;99567.13;4275753;33;35146;-85
2022/09/11 01:05:40;;;;;;;0.80;0.40;;;;;;;17.16;79.35;99565.28;4284357;33;35197;-86
2022/09/11 01:08:26;;;;;;;1.80;0.50;;;;;;;16.93;80.82;99559.53;4274833;33;34630;-85
2022/09/11 01:11:24;;;;;;;2.53;0.40;;;;;;;15.74;86.50;99558.13;4273063;33;35056;-84
2022/09/11 01:14:41;;;;;;;1.95;0.50;;;;;;;15.67;88.32;99566.16;4284251;33;34261;-85
2022/09/11 01:17:52;;;;;;;3.35;0.60;;;;;;;15.34;90.49;99558.00;4275547;33;33781;-83
2022/09/11 01:20:51;;;;;;;2.00;0.40;;;;;;;15.23;91.80;99554.91;4275308;33;34683;-85
2022/09/11 01:24:03;;;;;;;1.15;0.45;;;;;;;15.76;88.83;99552.25;4287413;33;34979;-84
2022/09/11 01:26:52;;;;;;;0.67;0.40;;;;;;;15.18;92.78;99555.12;4288816;33;34666;-84
2022/09/11 01:29:43;;;;;;;1.50;0.50;;;;;;;14.05;99.31;99552.66;4276151;33;34669;-85
2022/09/11 01:32:36;;;;;;;1.50;0.60;;;;;;;13.84;100.00;99553.47;4275646;33;34634;-84
2022/09/11 01:35:27;;;;;;;2.03;0.40;;;;;;;13.86;100.00;99551.19;4286457;33;34547;-86
2022/09/11 01:38:52;;;;;;;0.52;0.50;;;;;;;13.86;100.00;99542.09;4288160;33;34841;-86
2022/09/11 01:42:00;;;;;;;2.42;0.65;;;;;;;14.06;100.00;99532.22;4278046;33;33327;-85
2022/09/11 01:44:50;;;;;;;0.80;0.40;;;;;;;14.21;100.00;99531.62;4263754;33;35504;-86
2022/09/11 01:47:37;;;;;;;0.68;0.30;;;;;;;14.14;100.00;99534.09;4267496;33;34604;-86
2022/09/11 01:50:24;;;;;;;1.55;0.60;;;;;;;13.89;100.00;99533.19;4277019;33;34705;-86
2022/09/11 01:53:11;;;;;;;1.25;0.50;;;;;;;13.61;100.00;99521.87;4267278;33;33730;-86
2022/09/11 01:56:03;;;;;;;3.47;0.57;;;;;;;13.46;100.00;99526.84;4274705;33;34697;-85
2022/09/11 01:58:55;;;;;;;1.15;0.40;;;;;;;13.75;100.00;99527.13;4279560;33;34910;-87
2022/09/11 02:01:48;;;;;;;2.37;1.37;;;;;;;13.58;100.00;99528.87;4288157;33;35467;-85
2022/09/11 02:04:39;;;;;;;1.98;0.68;;;;;;;14.34;100.00;99516.75;4279662;33;33771;-85
2022/09/11 02:07:34;;;;;;;0.67;0.50;;;;;;;13.76;100.00;99521.28;4266006;33;37420;-85
2022/09/11 02:10:53;;;;;;;0.82;0.60;;;;;;;14.30;100.00;99526.03;4282298;33;34499;-85
2022/09/11 02:13:51;;;;;;;1.00;0.60;;;;;;;13.79;100.00;99523.38;4282337;33;34592;-84
2022/09/11 02:16:48;;;;;;;1.42;0.65;;;;;;;14.12;100.00;99522.63;4276136;33;34090;-85
2022/09/11 02:19:35;;;;;;;2.62;0.60;;;;;;;13.60;100.00;99523.81;4276861;33;35517;-87
2022/09/11 02:22:22;;;;;;;1.27;0.50;;;;;;;13.87;100.00;99519.75;4285852;33;35038;-86
2022/09/11 02:25:08;;;;;;;1.20;0.40;;;;;;;13.52;100.00;99529.37;4286127;33;34535;-86
2022/09/11 02:27:57;;;;;;;2.30;0.47;;;;;;;13.70;100.00;99519.88;4282238;33;34191;-86
2022/09/11 02:30:44;;;;;;;1.95;0.57;;;;;;;13.32;100.00;99515.25;4276813;33;34644;-86
2022/09/11 02:33:35;;;;;;;1.27;0.50;;;;;;;13.21;100.00;99505.75;4270487;33;34963;-88
2022/09/11 02:36:31;;;;;;;1.67;0.52;;;;;;;13.19;100.00;99513.50;4269344;33;34377;-86
2022/09/11 02:39:38;;;;;;;2.47;0.50;;;;;;;12.98;100.00;99518.94;4287869;33;35184;-86
2022/09/11 02:42:30;;;;;;;0.60;0.40;;;;;;;13.53;100.00;99514.50;4272572;33;35592;-86
2022/09/11 02:45:31;;;;;;;0.90;0.50;;;;;;;13.02;100.00;99517.94;4290173;33;34578;-88
2022/09/11 02:48:43;;;;;;;0.73;0.37;;;;;;;13.00;100.00;99519.41;4291570;33;33650;-85
2022/09/11 02:51:35;;;;;;;0.85;0.50;;;;;;;13.02;100.00;99523.44;4274336;33;35089;-87
2022/09/11 02:54:29;;;;;;;1.52;0.30;;;;;;;13.28;100.00;99519.78;4287921;33;34546;-85
2022/09/11 02:57:32;;;;;;;1.85;0.40;;;;;;;13.27;100.00;99526.44;4294182;33;34128;-86
2022/09/11 03:00:18;;;;;;;1.30;0.40;;;;;;;13.78;100.00;99526.47;4265746;33;34672;-86
2022/09/11 03:03:05;;;;;;;1.50;0.50;;;;;;;14.34;100.00;99524.19;4287768;33;34250;-86
2022/09/11 03:05:51;;;;;;;2.83;0.60;;;;;;;14.49;100.00;99522.78;4288532;33;35670;-85
2022/09/11 03:08:39;;;;;;;3.17;0.60;;;;;;;14.21;100.00;99530.81;4270129;33;34658;-86
2022/09/11 03:11:26;;;;;;;0.95;0.45;;;;;;;14.39;100.00;99530.31;4285035;33;34571;-86
2022/09/11 03:14:13;;;;;;;1.42;0.70;;;;;;;14.13;100.00;99525.03;4279441;33;34048;-85
2022/09/11 03:17:00;;;;;;;1.17;0.50;;;;;;;13.49;100.00;99526.16;4290250;33;34588;-85
2022/09/11 03:19:48;;;;;;;4.82;0.70;;;;;;;13.43;100.00;99527.50;4280873;33;34682;-85
2022/09/11 03:22:35;;;;;;;2.70;0.60;;;;;;;13.71;100.00;99525.03;4290343;33;34598;-86
2022/09/11 03:25:27;;;;;;;1.50;0.50;;;;;;;13.03;100.00;99530.59;4288434;33;34307;-87
2022/09/11 03:28:13;;;;;;;3.22;0.50;;;;;;;13.16;100.00;99523.22;4294543;33;35316;-87
2022/09/11 03:31:00;;;;;;;2.08;0.57;;;;;;;13.64;100.00;99523.97;4287638;33;35940;-87
2022/09/11 03:33:46;;;;;;;2.47;0.60;;;;;;;13.60;100.00;99525.75;4278864;33;34416;-86
2022/09/11 03:36:33;;;;;;;1.60;0.70;;;;;;;13.90;100.00;99530.09;4289517;33;34380;-87
2022/09/11 03:39:20;;;;;;;2.78;0.60;;;;;;;14.43;100.00;99530.47;4290901;33;34632;-87
2022/09/11 03:42:11;;;;;;;2.47;0.50;;;;;;;14.70;100.00;99526.31;4282722;33;34471;-87
2022/09/11 03:44:57;;;;;;;2.15;0.47;;;;;;;14.71;100.00;99530.66;4289873;33;35195;-86
2022/09/11 03:47:43;;;;;;;2.22;0.80;;;;;;;14.38;100.00;99534.22;4281963;33;33035;-87
2022/09/11 03:50:30;;;;;;;1.73;0.50;;;;;;;15.27;100.00;99530.16;4290193;33;34691;-87
2022/09/11 03:53:16;;;;;;;5.80;0.60;;;;;;;15.62;99.85;99529.69;4288246;33;34561;-87
2022/09/11 03:56:03;;;;;;;0.52;0.40;;;;;;;14.24;100.00;99533.69;4293383;33;34465;-88
2022/09/11 03:58:56;;;;;;;1.20;0.50;;;;;;;15.35;100.00;99542.25;4287607;33;34226;-87
2022/09/11 04:01:43;;;;;;;2.92;0.50;;;;;;;14.90;100.00;99540.38;4275836;33;34703;-87
2022/09/11 04:04:31;;;;;;;2.00;0.60;;;;;;;15.09;100.00;99537.88;4275158;33;34537;-86
2022/09/11 04:07:18;;;;;;;1.52;0.60;;;;;;;15.19;100.00;99537.41;4284970;33;34678;-87
2022/09/11 04:10:05;;;;;;;1.50;0.60;;;;;;;14.76;100.00;99537.91;4282356;33;34291;-86
2022/09/11 04:12:52;;;;;;;1.85;0.95;;;;;;;15.23;100.00;99538.34;4296493;33;34130;-87
2022/09/11 04:15:39;;;;;;;3.53;0.70;;;;;;;14.93;100.00;99536.91;4284627;33;35955;-87
2022/09/11 04:18:25;;;;;;;1.27;0.73;;;;;;;14.68;100.00;99542.38;4280103;33;34574;-86
2022/09/11 04:21:14;;;;;;;3.67;0.60;;;;;;;15.14;100.00;99551.44;4282413;33;34175;-87
2022/09/11 04:24:01;;;;;;;1.08;0.60;;;;;;;15.52;100.00;99547.53;4278976;33;34615;-86
2022/09/11 04:26:47;;;;;;;1.75;0.80;;;;;;;15.15;100.00;99542.00;4282527;33;35955;-86
2022/09/11 04:29:34;;;;;;;1.52;0.70;;;;;;;15.17;100.00;99547.16;4272139;33;34754;-87
2022/09/11 04:32:21;;;;;;;1.75;0.68;;;;;;;15.30;100.00;99551.56;4291351;33;34331;-87
2022/09/11 04:35:07;;;;;;;2.70;0.60;;;;;;;15.34;100.00;99552.50;4291046;33;34444;-86
2022/09/11 04:37:54;;;;;;;0.73;0.68;;;;;;;15.79;98.62;99556.28;4279491;33;35900;-87
2022/09/11 04:40:40;;;;;;;1.25;0.60;;;;;;;16.19;96.00;99543.28;4283709;33;33591;-87
2022/09/11 04:43:31;;;;;;;2.67;0.60;;;;;;;16.47;94.75;99550.75;4293162;33;33926;-87
2022/09/11 04:46:18;;;;;;;2.10;0.60;;;;;;;16.42;93.95;99542.72;4278832;33;34802;-87
2022/09/11 04:49:04;;;;;;;1.60;0.75;;;;;;;16.33;95.54;99536.53;4290112;33;36058;-87
2022/09/11 04:51:51;;;;;;;2.47;0.73;;;;;;;16.54;94.20;99547.41;4291892;33;34710;-87
2022/09/11 04:54:38;;;;;;;1.33;0.70;;;;;;;16.34;95.26;99554.75;4292282;33;34182;-87
2022/09/11 04:57:25;;;;;;;1.83;0.62;;;;;;;16.68;93.40;99546.97;4292497;33;35275;-86
2022/09/11 05:00:12;;;;;;;1.20;0.60;;;;;;;16.50;94.10;99540.97;4279224;33;35032;-88
2022/09/11 05:03:00;;;;;;;3.72;0.98;;;;;;;16.45;94.63;99544.81;4287981;33;35576;-87
2022/09/11 05:05:47;;;;;;;2.58;0.90;;;;;;;16.37;95.54;99540.22;4295398;33;33927;-87
2022/09/11 05:08:33;;;;;;;1.25;0.65;;;;;;;16.50;95.42;99547.28;4278184;33;34657;-87
2022/09/11 05:11:20;;;;;;;2.80;0.73;;;;;;;16.64;94.99;99541.34;4291842;33;34588;-86
2022/09/11 05:14:07;;;;;;;2.10;0.60;;;;;;;16.58;94.78;99543.56;4270736;33;35109;-86
2022/09/11 05:16:54;;;;;;;1.77;0.80;;;;;;;16.61;95.04;99534.56;4291752;33;34113;-87
2022/09/11 05:19:42;;;;;;;2.70;0.98;;;;;;;16.79;93.91;99548.09;4293024;33;34683;-87
2022/09/11 05:22:28;;;;;;;1.37;0.80;;;;;;;16.44;95.63;99548.72;4282630;33;35051;-87
2022/09/11 05:25:17;;;;;;;3.50;0.82;;;;;;;16.76;94.73;99551.53;4283080;33;33930;-87
2022/09/11 05:28:04;;;;;;;4.87;0.90;;;;;;;17.04;93.34;99562.59;4290749;33;34096;-87
2022/09/11 05:30:54;;;;;;;2.83;0.88;;;;;;;16.42;96.75;99564.84;4288546;33;34596;-87
2022/09/11 05:33:43;;;;;;;1.40;0.90;;;;;;;16.66;96.24;99565.91;4282153;33;34479;-87
2022/09/11 05:36:30;;;;;;;2.55;0.70;;;;;;;16.73;96.24;99571.63;4271061;33;35542;-86
2022/09/11 05:39:16;;;;;;;3.00;0.80;;;;;;;16.93;96.02;99576.13;4286511;33;34593;-86
2022/09/11 05:42:03;;;;;;;1.70;0.70;;;;;;;16.88;95.98;99576.41;4279871;33;34595;-85
2022/09/11 05:44:51;;;;;;;2.15;0.70;;;;;;;17.32;93.54;99584.66;4281761;33;35983;-87
2022/09/11 05:47:38;;;;;;;2.40;0.60;;;;;;;17.25;93.77;99565.91;4285857;33;34732;-87
2022/09/11 05:50:24;;;;;;;2.15;0.90;;;;;;;17.37;93.53;99572.53;4292225;33;34158;-87
2022/09/11 05:53:11;;;;;;;2.58;0.90;;;;;;;16.92;95.72;99569.00;4289129;33;34598;-87
2022/09/11 05:56:08;;;;;;;1.50;0.80;;;;;;;16.70;95.94;99577.84;4290638;33;35921;-87
2022/09/11 05:58:56;;;;;;;2.10;0.70;;;;;;;16.30;95.94;99589.78;4289077;33;35130;-87
2022/09/11 06:01:46;;;;;;;3.08;0.80;;;;;;;15.33;100.00;99591.47;4283195;33;34167;-87
2022/09/11 06:04:33;;;;;;;1.42;0.70;;;;;;;16.14;98.18;99585.00;4294593;33;34393;-87
2022/09/11 06:07:19;;;;;;;1.85;0.68;;;;;;;16.07;98.76;99584.75;4276811;33;34941;-87
2022/09/11 06:10:07;;;;;;;2.58;0.68;;;;;;;16.12;98.00;99595.59;4287344;33;34908;-87
2022/09/11 06:12:53;;;;;;;2.83;0.47;;;;;;;16.28;97.92;99600.38;4281745;33;34729;-86
2022/09/11 06:15:44;;;;;;;1.48;0.60;;;;;;;15.80;100.00;99600.13;4290788;33;34649;-87
2022/09/11 06:18:32;;;;;;;2.03;0.80;;;;;;;15.14;100.00;99603.88;4282291;33;34562;-87
2022/09/11 06:21:22;;;;;;;2.70;1.27;;;;;;;15.97;100.00;99596.31;4292627;33;34923;-86
2022/09/11 06:24:09;;;;;;;1.58;0.88;;;;;;;16.14;98.36;99601.56;4266776;33;35330;-87
2022/09/11 06:26:56;;;;;;;1.48;0.88;;;;;;;16.27;98.30;99598.78;4257635;33;34682;-86
2022/09/11 06:29:43;;;;;;;3.67;0.90;;;;;;;15.56;100.00;99603.66;4270394;33;34545;-86
2022/09/11 06:32:30;;;;;;;1.30;1.00;;;;;;;15.88;100.00;99598.38;4280914;33;35532;-87
2022/09/11 06:35:17;;;;;;;2.80;1.08;;;;;;;15.48;100.00;99590.78;4293723;33;33274;-87
2022/09/11 06:38:04;;;;;;;2.08;0.70;;;;;;;15.59;100.00;99591.13;4291611;33;35643;-88
2022/09/11 06:40:52;;;;;;;1.00;0.70;;;;;;;15.43;100.00;99583.53;4290500;33;35104;-88
2022/09/11 06:43:39;;;;;;;1.17;0.70;;;;;;;15.52;100.00;99588.94;4276101;33;34485;-87
2022/09/11 06:46:25;;;;;;;2.45;0.90;;;;;;;15.83;100.00;99574.56;4279663;33;33838;-86
2022/09/11 06:49:13;;;;;;;2.37;0.70;;;;;;;15.76;100.00;99590.13;4288988;33;34322;-87
2022/09/11 06:52:17;;;;;;;1.98;0.90;;;;;;;15.46;100.00;99593.09;4286397;33;35127;-85
2022/09/11 06:55:06;;;;;;;1.80;0.68;;;;;;;15.94;100.00;99589.53;4289349;33;34611;-88
2022/09/11 06:57:53;;;;;;;2.37;0.80;;;;;;;15.94;100.00;99586.75;4274415;33;35076;-87
2022/09/11 07:00:40;;;;;;;1.85;0.77;;;;;;;15.66;100.00;99589.41;4289838;33;34671;-84
2022/09/11 07:03:28;;;;;;;1.98;0.70;;;;;;;15.84;100.00;99589.19;4288721;33;35848;-82
2022/09/11 07:06:16;;;;;;;1.45;0.88;;;;;;;16.21;100.00;99580.81;4283105;33;34667;-81
2022/09/11 07:09:03;;;;;;;2.10;0.93;;;;;;;16.10;100.00;99578.53;4281086;33;34062;-81
2022/09/11 07:11:50;;;;;;;1.30;0.70;;;;;;;16.68;97.24;99575.47;4271241;33;34265;-81
2022/09/11 07:14:37;;;;;;;3.12;0.80;;;;;;;16.76;98.10;99574.53;4270660;33;35877;-80
2022/09/11 07:17:23;;;;;;;2.75;1.65;;;;;;;17.34;93.60;99581.53;4291954;33;32789;-81
2022/09/11 07:20:10;;;;;;;2.65;0.80;;;;;;;17.29;93.57;99569.56;4286602;33;34320;-81
2022/09/11 07:22:57;;;;;;;1.55;0.65;;;;;;;16.80;95.13;99566.31;4284982;33;34121;-81
2022/09/11 07:25:44;;;;;;;1.12;0.70;;;;;;;16.89;94.81;99569.72;4274707;33;34889;-82
2022/09/11 07:28:31;;;;;;;0.98;0.60;;;;;;;16.73;96.85;99566.87;4289121;33;35532;-81
2022/09/11 07:31:20;;;;;;;1.58;0.68;;;;;;;17.12;95.66;99560.81;4288950;33;34152;-82
2022/09/11 07:34:07;;;;;;;2.17;0.57;;;;;;;17.57;93.91;99554.00;4268493;33;35115;-81
2022/09/11 07:36:54;;;;;;;1.25;0.52;;;;;;;17.48;93.82;99551.44;4289130;33;33995;-81
2022/09/11 07:39:41;;;;;;;2.92;0.50;;;;;;;17.70;92.54;99552.72;4278363;33;36158;-81
2022/09/11 07:42:28;;;;;;;2.05;0.70;;;;;;;17.79;90.52;99549.75;4291413;33;34210;-81
2022/09/11 07:45:16;;;;;;;1.15;0.60;;;;;;;17.58;91.23;99561.13;4292295;33;34714;-82
2022/09/11 07:48:07;;;;;;;0.70;0.50;;;;;;;17.30;92.38;99564.81;4292679;33;34956;-80
2022/09/11 07:50:57;;;;;;;2.62;0.80;;;;;;;18.18;87.82;99559.75;4285439;33;35668;-82
2022/09/11 07:53:56;;;;;;;2.75;0.70;;;;;;;17.36;90.24;99568.94;4272540;33;34103;-82
2022/09/11 07:56:44;;;;;;;1.08;0.52;;;;;;;17.95;89.48;99569.94;4297412;33;34608;-82
2022/09/11 07:59:30;;;;;;;1.08;0.47;;;;;;;17.67;88.90;99559.81;4277417;33;35504;-81
2022/09/11 08:02:16;;;;;;;1.48;0.65;;;;;;;18.23;87.37;99561.44;4278713;33;34346;-82
2022/09/11 08:05:03;;;;;;;13.30;0.95;;;;;;;18.45;87.25;99565.47;4283767;33;33785;-80
2022/09/11 08:07:49;;;;;;;2.37;0.52;;;;;;;17.76;89.76;99568.72;4287349;33;34712;-80
2022/09/11 08:10:38;;;;;;;3.15;0.60;;;;;;;17.71;89.75;99570.97;4273573;33;35581;-80
2022/09/11 08:13:24;;;;;;;1.23;0.70;;;;;;;17.64;91.05;99574.34;4277425;33;33626;-80
2022/09/11 08:16:10;;;;;;;1.17;0.47;;;;;;;17.73;90.81;99568.59;4282646;33;33955;-80
2022/09/11 08:18:57;;;;;;;1.33;0.40;;;;;;;17.66;91.94;99562.91;4286904;33;34333;-80
2022/09/11 08:21:44;;;;;;;1.85;0.62;;;;;;;17.93;91.03;99578.62;4282202;33;36080;-81
2022/09/11 08:24:30;;;;;;;1.95;0.68;;;;;;;18.02;89.29;99569.31;4278949;33;34900;-79
2022/09/11 08:27:18;;;;;;;1.40;0.60;;;;;;;18.28;87.70;99577.00;4274346;33;34727;-79
2022/09/11 08:30:05;;;;;;;1.35;1.00;;;;;;;18.19;87.97;99566.13;4267918;33;33957;-80
2022/09/11 08:32:51;;;;;;;1.90;0.80;;;;;;;18.12;88.02;99568.72;4269288;33;34928;-80
2022/09/11 08:35:37;;;;;;;1.75;0.40;;;;;;;17.95;89.85;99573.50;4275734;33;34343;-80
2022/09/11 08:38:24;;;;;;;1.52;0.50;;;;;;;18.69;86.86;99558.78;4285105;33;32864;-80
2022/09/11 08:41:23;;;;;;;2.75;0.62;;;;;;;18.89;86.34;99573.47;4283208;33;35233;-79
2022/09/11 08:44:27;;;;;;;1.67;0.45;;;;;;;19.30;83.30;99560.69;4286763;33;34797;-82
2022/09/11 08:47:28;;;;;;;2.58;0.60;;;;;;;18.61;85.14;99560.63;4285469;33;35510;-81
2022/09/11 08:50:22;;;;;;;1.80;0.45;;;;;;;18.52;86.84;99559.25;4267631;33;34135;-81
2022/09/11 08:53:16;;;;;;;2.20;0.60;;;;;;;18.52;86.86;99559.25;4278637;33;35445;-78
2022/09/11 08:56:11;;;;;;;2.67;0.60;;;;;;;18.80;86.28;99565.38;4265534;33;35032;-79
2022/09/11 08:59:09;;;;;;;1.40;0.60;;;;;;;18.39;86.23;99573.28;4276315;33;34323;-80
2022/09/11 09:02:45;;;;;;;1.25;0.60;;;;;;;18.67;86.34;99561.13;4285842;33;35040;-80
2022/09/11 09:05:40;;;;;;;0.93;0.30;;;;;;;18.94;84.53;99567.59;4268804;33;34634;-78
2022/09/11 09:08:34;;;;;;;1.67;0.50;;;;;;;19.02;81.96;99565.78;4268882;33;34977;-82
2022/09/11 09:11:54;;;;;;;1.45;0.30;;;;;;;19.35;80.78;99572.66;4280838;33;34978;-79
2022/09/11 09:15:05;;;;;;;1.58;0.52;;;;;;;19.98;77.83;99569.31;4287319;33;34987;-80
2022/09/11 09:17:58;;;;;;;2.22;0.65;;;;;;;19.18;83.37;99562.84;4282512;33;34460;-80
2022/09/11 09:20:50;;;;;;;0.73;0.40;;;;;;;19.45;82.08;99556.16;4271422;33;34584;-80
2022/09/11 09:23:43;;;;;;;1.75;0.65;;;;;;;20.13;78.92;99562.75;4272869;33;34580;-82
2022/09/11 09:26:38;;;;;;;2.37;0.60;;;;;;;19.89;78.88;99558.44;4271318;33;33699;-82
2022/09/11 09:29:29;;;;;;;1.60;0.60;;;;;;;19.88;79.69;99567.97;4270409;33;34722;-79
2022/09/11 09:32:23;;;;;;;0.90;0.40;;;;;;;19.24;80.67;99573.31;4281030;33;35661;-79
2022/09/11 09:35:17;;;;;;;0.62;0.40;;;;;;;19.44;79.53;99562.91;4260971;33;34548;-78
2022/09/11 09:38:27;;;;;;;1.17;0.43;;;;;;;19.36;78.64;99557.63;4270381;33;35137;-79
2022/09/11 09:41:35;;;;;;;1.17;0.50;;;;;;;18.82;81.41;99563.03;4259738;33;34212;-78
2022/09/11 09:44:30;;;;;;;1.90;0.47;;;;;;;19.15;80.91;99564.41;4285878;33;35716;-78
2022/09/11 09:47:16;;;;;;;1.95;0.95;;;;;;;19.64;80.12;99558.06;4280333;33;35173;-79
2022/09/11 09:50:04;;;;;;;0.88;0.40;;;;;;;19.54;79.23;99555.91;4274250;33;34134;-80
2022/09/11 09:52:50;;;;;;;1.95;0.68;;;;;;;19.74;78.34;99560.22;4284786;33;34561;-77
2022/09/11 09:55:38;;;;;;;0.82;0.43;;;;;;;20.19;76.72;99549.31;4276040;33;34943;-77
2022/09/11 09:58:28;;;;;;;2.28;0.45;;;;;;;19.95;75.52;99553.34;4278935;33;34349;-79
2022/09/11 10:01:43;;;;;;;0.95;0.40;;;;;;;20.10;73.88;99552.37;4277758;33;34124;-80
2022/09/11 10:04:30;;;;;;;1.85;0.55;;;;;;;19.53;77.21;99562.66;4272409;33;36127;-80
2022/09/11 10:07:20;;;;;;;1.17;0.50;;;;;;;19.48;78.59;99549.06;4260868;33;34487;-79
2022/09/11 10:10:20;;;;;;;1.30;0.60;;;;;;;19.52;79.37;99555.47;4283174;33;35488;-78
2022/09/11 10:13:12;;;;;;;0.57;0.40;;;;;;;19.42;79.86;99556.91;4277345;33;33937;-79
2022/09/11 10:16:35;;;;;;;2.20;0.70;;;;;;;19.88;78.27;99554.06;4282438;33;34730;-79
2022/09/11 10:19:34;;;;;;;2.05;0.65;;;;;;;19.65;79.77;99561.63;4282750;33;35920;-80
2022/09/11 10:22:21;;;;;;;2.92;0.57;;;;;;;19.05;80.46;99553.91;4291502;33;34372;-79
2022/09/11 10:25:11;;;;;;;2.45;0.80;;;;;;;18.66;82.38;99565.06;4280346;33;33907;-78
2022/09/11 10:28:05;;;;;;;1.15;0.60;;;;;;;18.56;83.64;99554.59;4268368;33;35965;-78
2022/09/11 10:30:52;;;;;;;1.87;0.70;;;;;;;18.75;83.79;99553.75;4270975;33;34594;-80
2022/09/11 10:33:40;;;;;;;2.90;0.70;;;;;;;19.26;83.73;99565.38;4287641;33;35590;-78
2022/09/11 10:36:28;;;;;;;0.77;0.70;;;;;;;18.76;82.29;99552.59;4272523;33;33772;-80
2022/09/11 10:39:16;;;;;;;1.20;0.80;;;;;;;18.84;83.02;99557.91;4281567;33;34777;-78
2022/09/11 10:42:15;;;;;;;1.42;0.70;;;;;;;18.78;83.44;99556.59;4267118;33;33593;-77
2022/09/11 10:45:15;;;;;;;2.25;0.73;;;;;;;18.97;84.63;99554.97;4281550;33;34616;-78
2022/09/11 10:48:15;;;;;;;3.12;0.93;;;;;;;19.37;82.56;99559.22;4271743;33;34689;-79
2022/09/11 10:51:06;;;;;;;2.42;1.00;;;;;;;19.63;81.93;99550.87;4266891;33;35493;-79
2022/09/11 10:53:57;;;;;;;3.75;0.80;;;;;;;19.96;79.83;99546.63;4283120;33;34682;-78
2022/09/11 10:56:49;;;;;;;0.80;0.60;;;;;;;20.82;75.96;99533.75;4283941;33;34302;-80
2022/09/11 10:59:57;;;;;;;1.87;0.70;;;;;;;21.75;71.93;99518.59;4291647;33;34143;-80
2022/09/11 11:02:46;;;;;;;1.15;0.73;;;;;;;20.92;73.33;99521.94;4288262;33;34352;-78
2022/09/11 11:05:45;;;;;;;2.12;0.80;;;;;;;21.04;75.54;99521.63;4277287;33;34626;-78
2022/09/11 11:08:50;;;;;;;1.45;0.80;;;;;;;19.85;78.33;99531.78;4288748;33;34935;-79
2022/09/11 11:11:49;;;;;;;6.85;1.00;;;;;;;20.13;78.04;99518.25;4287203;33;34289;-78
2022/09/11 11:14:58;;;;;;;2.40;0.70;;;;;;;21.03;74.95;99514.47;4289678;33;34737;-78
2022/09/11 11:17:59;;;;;;;2.03;0.88;;;;;;;21.62;73.18;99520.09;4272833;33;34871;-80
2022/09/11 11:21:29;;;;;;;2.35;1.10;;;;;;;21.43;70.80;99526.75;4263526;33;34562;-77
2022/09/11 11:24:40;;;;;;;1.08;0.52;;;;;;;21.20;72.79;99517.78;4263411;33;33659;-78
2022/09/11 11:27:59;;;;;;;2.05;0.73;;;;;;;20.89;73.61;99520.72;4276870;33;34036;-79
2022/09/11 11:30:59;;;;;;;2.20;0.50;;;;;;;21.96;70.13;99508.75;4290358;33;34554;-80
2022/09/11 11:33:59;;;;;;;0.85;0.50;;;;;;;21.93;68.46;99515.91;4263118;33;34547;-78
2022/09/11 11:36:51;;;;;;;1.73;0.52;;;;;;;21.81;66.55;99510.66;4286313;33;34122;-79
2022/09/11 11:40:15;;;;;;;3.12;0.50;;;;;;;22.28;63.05;99494.94;4276407;33;35264;-78
2022/09/11 11:43:16;;;;;;;1.92;1.00;;;;;;;21.29;65.85;99504.34;4281537;33;34981;-80
2022/09/11 11:46:16;;;;;;;3.00;0.60;;;;;;;20.88;69.97;99512.72;4278525;33;35444;-78
2022/09/11 11:49:19;;;;;;;0.60;0.37;;;;;;;20.82;69.51;99519.84;4276861;33;33514;-76
2022/09/11 11:52:27;;;;;;;1.25;0.45;;;;;;;20.15;72.29;99527.03;4278944;33;34335;-76
2022/09/11 11:55:37;;;;;;;3.30;0.50;;;;;;;20.73;69.99;99516.56;4282234;33;34586;-77
2022/09/11 11:58:38;;;;;;;1.48;0.50;;;;;;;19.97;71.03;99514.84;4272265;33;34375;-77
2022/09/11 12:01:39;;;;;;;0.65;0.40;;;;;;;20.54;69.91;99515.56;4270054;33;35003;-77
2022/09/11 12:04:45;;;;;;;2.50;0.40;;;;;;;20.02;69.18;99519.28;4278597;33;35545;-77
2022/09/11 12:07:32;;;;;;;1.55;0.52;;;;;;;19.73;71.70;99522.47;4270694;33;34899;-75
2022/09/11 12:10:32;;;;;;;1.90;0.40;;;;;;;19.41;71.52;99521.16;4280156;33;34971;-76
2022/09/11 12:13:19;;;;;;;1.17;0.52;;;;;;;19.60;72.96;99511.94;4270084;33;34930;-78
2022/09/11 12:16:11;;;;;;;2.00;0.60;;;;;;;19.27;80.59;99524.53;4279542;33;34272;-75
2022/09/11 12:19:03;;;;;;;2.83;0.70;;;;;;;18.43;89.52;99529.75;4280248;33;34964;-79
2022/09/11 12:21:52;;;;;;;4.60;1.17;;;;;;;17.95;96.84;99531.94;4277087;33;34039;-78
2022/09/11 12:24:58;;;;;;;5.45;1.37;;;;;;;17.47;100.00;99538.72;4278667;33;33075;-81
2022/09/11 12:27:45;;;;;;;2.28;0.90;;;;;;;16.56;100.00;99536.78;4273114;33;34617;-82
2022/09/11 12:31:10;;;;;;;2.28;0.90;;;;;;;16.14;100.00;99535.25;4281111;33;34892;-80
2022/09/11 12:33:57;;;;;;;1.83;0.90;;;;;;;16.09;100.00;99535.47;4280540;33;33342;-80
2022/09/11 12:37:31;;;;;;;2.05;0.50;;;;;;;16.07;100.00;99517.62;4276173;33;34099;-80
2022/09/11 12:40:24;;;;;;;2.60;0.60;;;;;;;16.64;100.00;99525.56;4275961;33;34610;-80
2022/09/11 12:43:29;;;;;;;1.77;0.22;;;;;;;17.87;100.00;99527.41;4278209;33;34930;-80
2022/09/11 12:46:19;;;;;;;1.05;0.50;;;;;;;18.45;100.00;99521.06;4281951;33;34543;-81
2022/09/11 12:49:05;;;;;;;0.73;0.30;;;;;;;18.78;100.00;99531.62;4289263;33;34145;-80
2022/09/11 12:52:18;;;;;;;1.00;0.20;;;;;;;19.52;100.00;99530.47;4290229;33;34699;-80
2022/09/11 12:55:25;;;;;;;0.88;0.40;;;;;;;18.73;98.95;99525.56;4275975;33;35650;-79
2022/09/11 12:58:17;;;;;;;1.65;0.50;;;;;;;17.69;100.00;99528.94;4282011;33;34340;-78
2022/09/11 13:01:16;;;;;;;1.25;0.50;;;;;;;17.81;100.00;99520.53;4272408;33;34112;-79
2022/09/11 13:04:14;;;;;;;1.37;0.60;;;;;;;17.31;100.00;99520.16;4275382;33;34364;-79
2022/09/11 13:07:04;;;;;;;1.50;0.57;;;;;;;18.05;100.00;99521.44;4276055;33;36540;-79
2022/09/11 13:09:50;;;;;;;2.17;0.73;;;;;;;17.85;100.00;99520.63;4276524;33;34795;-80
2022/09/11 13:12:47;;;;;;;2.25;0.60;;;;;;;17.79;100.00;99522.06;4282193;33;33970;-79
2022/09/11 13:15:41;;;;;;;0.55;0.50;;;;;;;17.41;100.00;99516.03;4277994;33;35375;-81
2022/09/11 13:18:30;;;;;;;2.30;0.80;;;;;;;17.31;100.00;99513.84;4269934;33;34589;-79
2022/09/11 13:21:17;;;;;;;2.15;1.20;;;;;;;17.27;100.00;99518.47;4268623;33;34422;-80
2022/09/11 13:24:34;;;;;;;1.75;0.40;;;;;;;17.36;100.00;99521.87;4280126;33;35003;-80
2022/09/11 13:27:23;;;;;;;;;;;;;;;17.24;100.00;99505.34;4278761;33;34620;-81
2022/09/11 13:30:12;;;;;;;1.62;0.60;;;;;;;17.87;100.00;99508.03;4278754;33;35302;-79